Time;durP1;ratioP1;P1;durP2;ratioP2;P2;SDS_P1;SDS_P2;PMS_P1;PMS_P2;Temp;Humidity;BMP_temperature;BMP_pressure;BME280_temperature;BME280_humidity;BME280_pressure;Samples;Min_cycle;Max_cycle;Signal;HPM_P1;HPM_P2
2022/10/13 00:00:32;;;;;;;3.42;2.30;;;;;;;22.50;42.03;101940.09;5014063;28;20025;-73
2022/10/13 00:03:01;;;;;;;4.00;2.40;;;;;;;22.52;42.02;101929.31;5016668;28;20045;-73
2022/10/13 00:05:28;;;;;;;4.50;2.47;;;;;;;22.49;42.28;101927.00;4991637;28;20049;-72
2022/10/13 00:07:54;;;;;;;3.20;2.40;;;;;;;22.47;42.09;101921.03;5011684;28;20184;-73
2022/10/13 00:10:20;;;;;;;4.10;2.42;;;;;;;22.49;41.80;101922.50;5017119;28;20046;-73
2022/10/13 00:12:46;;;;;;;4.75;2.95;;;;;;;22.48;42.01;101920.03;5013483;28;20769;-75
2022/10/13 00:15:13;;;;;;;2.90;2.28;;;;;;;22.47;42.05;101915.72;5011196;28;20041;-73
2022/10/13 00:17:40;;;;;;;3.47;2.33;;;;;;;22.45;42.15;101921.22;5012747;28;20094;-72
2022/10/13 00:20:07;;;;;;;4.28;2.80;;;;;;;22.44;42.16;101913.38;5012972;28;20038;-72
2022/10/13 00:22:33;;;;;;;3.25;2.60;;;;;;;22.43;42.08;101920.53;4987408;28;20041;-71
2022/10/13 00:24:58;;;;;;;3.80;2.50;;;;;;;22.43;42.46;101925.00;5010914;28;20505;-71
2022/10/13 00:27:24;;;;;;;5.05;2.85;;;;;;;22.44;41.94;101924.00;5014311;28;20037;-71
2022/10/13 00:29:49;;;;;;;3.28;2.35;;;;;;;22.44;42.08;101924.00;4995111;28;20125;-71
2022/10/13 00:32:15;;;;;;;2.80;2.30;;;;;;;22.46;42.21;101914.91;5012504;28;20045;-71
2022/10/13 00:34:41;;;;;;;3.08;2.60;;;;;;;22.43;42.38;101901.13;5012726;28;20124;-71
2022/10/13 00:37:08;;;;;;;3.63;2.65;;;;;;;22.44;42.04;101903.63;5003714;28;20040;-71
2022/10/13 00:39:33;;;;;;;3.95;2.63;;;;;;;22.45;41.95;101907.94;5001320;28;20049;-71
2022/10/13 00:41:59;;;;;;;5.03;2.88;;;;;;;22.39;42.06;101892.69;4992775;28;20099;-72
2022/10/13 00:45:00;;;;;;;2.95;2.40;;;;;;;22.42;42.43;101902.13;5010394;28;20701;-71
2022/10/13 00:47:35;;;;;;;4.32;2.72;;;;;;;22.44;42.39;101897.47;5002636;28;20033;-71
2022/10/13 00:50:01;;;;;;;3.05;2.60;;;;;;;22.36;42.32;101900.97;5015782;28;20129;-71
2022/10/13 00:52:31;;;;;;;2.33;2.15;;;;;;;22.42;42.45;101910.06;4978185;28;20053;-71
2022/10/13 00:54:57;;;;;;;3.40;2.50;;;;;;;22.42;42.20;101910.06;4975717;28;20043;-71
2022/10/13 00:57:24;;;;;;;4.15;2.97;;;;;;;22.41;42.00;101903.94;5016776;28;20056;-71
2022/10/13 00:59:50;;;;;;;3.83;2.70;;;;;;;22.38;42.37;101896.31;5019917;28;20029;-71
2022/10/13 01:02:16;;;;;;;3.30;2.70;;;;;;;22.33;42.32;101881.94;5015061;28;20481;-72
2022/10/13 01:04:45;;;;;;;5.10;2.60;;;;;;;22.41;42.40;101884.53;5016431;28;20038;-70
2022/10/13 01:07:14;;;;;;;3.05;2.55;;;;;;;22.36;42.19;101879.75;5017200;28;20036;-71
2022/10/13 01:09:41;;;;;;;5.15;2.72;;;;;;;22.38;42.27;101880.41;5002898;28;22285;-71
2022/10/13 01:12:39;;;;;;;3.40;2.60;;;;;;;22.39;42.21;101883.88;4997905;28;20034;-71
2022/10/13 01:15:16;;;;;;;2.78;2.22;;;;;;;22.35;42.53;101880.75;5013091;28;20128;-72
2022/10/13 01:18:21;;;;;;;2.35;2.15;;;;;;;22.38;42.20;101879.56;4990778;28;20484;-70
2022/10/13 01:20:53;;;;;;;3.25;2.60;;;;;;;22.37;42.14;101876.09;5009703;28;20539;-71
2022/10/13 01:23:28;;;;;;;4.03;2.60;;;;;;;22.37;42.45;101875.28;5004549;28;20113;-71
2022/10/13 01:26:24;;;;;;;3.50;2.60;;;;;;;22.36;42.51;101871.78;5009212;28;20148;-71
2022/10/13 01:28:56;;;;;;;3.90;2.55;;;;;;;22.34;42.31;101870.31;5000887;28;20533;-71
2022/10/13 01:31:40;;;;;;;3.50;2.80;;;;;;;22.36;42.39;101863.00;5015107;28;20041;-71
2022/10/13 01:34:25;;;;;;;3.47;2.60;;;;;;;22.33;42.19;101866.81;5012213;28;20061;-70
2022/10/13 01:37:05;;;;;;;4.25;2.47;;;;;;;22.26;42.55;101850.78;5009715;28;20037;-71
2022/10/13 01:39:45;;;;;;;4.35;2.58;;;;;;;22.33;42.46;101853.56;4976009;28;20095;-71
2022/10/13 01:42:18;;;;;;;;;;;;;;;22.34;42.37;101849.91;4999024;28;21430;-71
2022/10/13 01:44:54;;;;;;;3.67;2.60;;;;;;;22.30;42.41;101852.09;5001269;28;19920;-71
2022/10/13 01:47:21;;;;;;;4.68;2.88;;;;;;;22.28;42.22;101845.28;5010294;28;20038;-71
2022/10/13 01:49:51;;;;;;;4.57;2.67;;;;;;;22.29;42.42;101831.84;5009923;28;20579;-71
2022/10/13 01:52:20;;;;;;;3.88;2.70;;;;;;;22.26;42.52;101826.91;5006307;28;20052;-72
2022/10/13 01:54:53;;;;;;;4.63;2.93;;;;;;;22.33;42.11;101836.81;5018189;28;20922;-71
2022/10/13 01:57:31;;;;;;;3.55;2.60;;;;;;;22.31;42.61;101829.03;5012324;28;20045;-71
2022/10/13 02:00:00;;;;;;;4.65;2.42;;;;;;;22.32;42.45;101822.72;4984084;28;20618;-70
2022/10/13 02:02:33;;;;;;;4.38;2.97;;;;;;;22.27;42.26;101809.16;5011633;28;20044;-71
2022/10/13 02:05:40;;;;;;;3.47;2.97;;;;;;;22.31;42.72;101813.09;5009659;28;20037;-72
2022/10/13 02:08:16;;;;;;;3.45;2.75;;;;;;;22.24;42.65;101799.69;4943990;28;20901;-71
2022/10/13 02:11:12;;;;;;;3.92;2.50;;;;;;;22.29;42.59;101823.06;5010774;28;20136;-71
2022/10/13 02:13:44;;;;;;;3.85;2.53;;;;;;;22.33;42.57;101815.59;5007569;28;20045;-72
2022/10/13 02:16:22;;;;;;;3.20;2.67;;;;;;;22.25;42.34;101809.28;4983428;28;20033;-71
2022/10/13 02:18:49;;;;;;;3.20;2.60;;;;;;;22.30;42.48;101816.75;5011095;28;20048;-70
2022/10/13 02:21:16;;;;;;;3.10;2.60;;;;;;;22.26;42.71;101818.06;5009702;28;20038;-71
2022/10/13 02:23:43;;;;;;;4.60;2.40;;;;;;;22.27;42.49;101820.59;4992137;28;20645;-71
2022/10/13 02:26:09;;;;;;;4.55;2.75;;;;;;;22.26;42.60;101820.72;4989958;28;20034;-71
2022/10/13 02:28:39;;;;;;;3.47;2.70;;;;;;;22.26;42.49;101812.78;5009096;28;20168;-71
2022/10/13 02:31:06;;;;;;;4.82;2.85;;;;;;;22.24;42.49;101820.91;4994874;28;20052;-72
2022/10/13 02:33:32;;;;;;;4.28;2.83;;;;;;;22.25;42.72;101813.78;4998198;28;20045;-71
2022/10/13 02:35:58;;;;;;;3.25;2.53;;;;;;;22.28;42.27;101810.81;5005919;28;20128;-72
2022/10/13 02:38:24;;;;;;;3.60;2.58;;;;;;;22.28;42.57;101821.41;5011245;28;20049;-71
2022/10/13 02:40:53;;;;;;;3.90;2.70;;;;;;;22.23;42.65;101811.28;4991386;28;20847;-71
2022/10/13 02:43:19;;;;;;;3.75;2.55;;;;;;;22.22;42.44;101812.28;5010505;28;20461;-73
2022/10/13 02:45:45;;;;;;;3.17;2.60;;;;;;;22.25;42.64;101816.44;5007625;28;20041;-71
2022/10/13 02:48:18;;;;;;;2.95;2.50;;;;;;;22.24;42.81;101807.63;4996070;28;20120;-73
2022/10/13 02:50:44;;;;;;;3.63;2.47;;;;;;;22.19;42.62;101795.91;4980737;28;20111;-72
2022/10/13 02:53:10;;;;;;;3.53;2.67;;;;;;;22.24;42.52;101804.16;4996400;28;20111;-73
2022/10/13 02:55:35;;;;;;;3.00;2.70;;;;;;;22.23;42.65;101810.47;5004226;28;20053;-73
2022/10/13 02:58:01;;;;;;;3.78;2.70;;;;;;;22.21;42.58;101802.69;4991062;28;20071;-73
2022/10/13 03:00:26;;;;;;;3.85;2.70;;;;;;;22.21;42.37;101796.56;4991669;28;20037;-73
2022/10/13 03:02:53;;;;;;;3.47;2.50;;;;;;;22.19;42.61;101798.56;5009680;28;20099;-73
2022/10/13 03:05:19;;;;;;;3.97;3.17;;;;;;;22.23;42.50;101800.69;4981291;28;20188;-73
2022/10/13 03:07:44;;;;;;;2.97;2.67;;;;;;;22.16;42.48;101793.59;5007789;28;20483;-73
2022/10/13 03:10:10;;;;;;;4.88;2.65;;;;;;;22.13;42.80;101797.44;5008362;28;20113;-73
2022/10/13 03:12:35;;;;;;;3.42;2.60;;;;;;;22.20;42.72;101798.38;4993416;28;20152;-74
2022/10/13 03:15:01;;;;;;;5.10;3.05;;;;;;;22.22;42.69;101784.94;5009951;28;20049;-74
2022/10/13 03:17:26;;;;;;;3.42;2.50;;;;;;;22.21;42.39;101783.28;5003712;28;20033;-73
2022/10/13 03:19:52;;;;;;;3.40;2.33;;;;;;;22.19;42.44;101783.47;5000587;28;20500;-73
2022/10/13 03:22:17;;;;;;;3.05;2.72;;;;;;;22.13;42.58;101778.84;4978248;28;20049;-73
2022/10/13 03:24:44;;;;;;;4.65;2.90;;;;;;;22.19;42.68;101782.63;4991520;28;20040;-73
2022/10/13 03:27:10;;;;;;;4.00;2.80;;;;;;;22.19;42.40;101777.31;5013686;28;20049;-73
2022/10/13 03:29:35;;;;;;;3.78;2.78;;;;;;;22.19;42.56;101780.81;5014705;28;21052;-73
2022/10/13 03:32:00;;;;;;;3.65;2.88;;;;;;;22.17;42.50;101788.13;5012524;28;20050;-73
2022/10/13 03:34:26;;;;;;;3.83;2.80;;;;;;;22.20;42.35;101778.97;5019037;28;20518;-73
2022/10/13 03:36:54;;;;;;;3.80;2.65;;;;;;;22.16;42.42;101782.97;5018815;28;20044;-70
2022/10/13 03:39:21;;;;;;;5.28;3.30;;;;;;;22.15;42.63;101779.50;4990347;28;20037;-73
2022/10/13 03:41:46;;;;;;;4.35;2.90;;;;;;;22.19;42.46;101775.50;5020362;28;20128;-74
2022/10/13 03:44:12;;;;;;;3.47;2.60;;;;;;;22.17;42.75;101774.84;5010829;28;20049;-73
2022/10/13 03:46:38;;;;;;;3.25;2.67;;;;;;;22.13;42.82;101770.91;5017045;28;20427;-72
2022/10/13 03:49:03;;;;;;;3.35;2.80;;;;;;;22.13;42.76;101767.41;5024544;28;20045;-72
2022/10/13 03:51:29;;;;;;;4.45;2.72;;;;;;;22.10;42.92;101760.63;5016079;28;20038;-74
2022/10/13 03:53:54;;;;;;;3.70;2.90;;;;;;;22.15;42.75;101776.03;5003342;28;20107;-71
2022/10/13 03:56:25;;;;;;;3.33;2.58;;;;;;;22.11;42.66;101780.84;5003654;28;20034;-71
2022/10/13 03:58:55;;;;;;;3.45;2.53;;;;;;;22.16;42.58;101778.50;4998500;28;20391;-72
2022/10/13 04:01:23;;;;;;;3.95;2.63;;;;;;;22.14;42.72;101771.72;5012215;28;20056;-71
2022/10/13 04:03:49;;;;;;;2.45;2.25;;;;;;;22.14;42.64;101771.72;5013388;28;20029;-72
2022/10/13 04:06:15;;;;;;;3.92;2.92;;;;;;;22.07;42.71;101760.13;5015621;28;20767;-72
2022/10/13 04:08:41;;;;;;;4.72;2.90;;;;;;;22.12;42.83;101769.25;5015603;28;20052;-72
2022/10/13 04:11:09;;;;;;;3.75;2.67;;;;;;;22.07;42.85;101766.25;4990955;28;20029;-73
2022/10/13 04:13:39;;;;;;;4.00;2.90;;;;;;;22.13;42.63;101768.25;4996224;28;20075;-73
2022/10/13 04:16:07;;;;;;;3.88;2.63;;;;;;;22.11;42.61;101764.13;5011310;28;20037;-73
2022/10/13 04:18:33;;;;;;;3.25;2.60;;;;;;;22.14;42.52;101759.28;5017361;28;20071;-73
2022/10/13 04:20:58;;;;;;;3.47;2.83;;;;;;;22.08;42.57;101756.47;5021077;28;20494;-73
2022/10/13 04:23:24;;;;;;;3.10;2.80;;;;;;;22.11;42.49;101759.63;5014422;28;20041;-73
2022/10/13 04:25:49;;;;;;;3.60;2.75;;;;;;;22.08;42.38;101754.66;5016638;28;20225;-73
2022/10/13 04:28:15;;;;;;;4.30;3.17;;;;;;;22.10;42.68;101757.16;4969959;28;20041;-76
2022/10/13 04:30:41;;;;;;;3.70;2.97;;;;;;;22.11;42.80;101740.25;4999786;28;20060;-75
2022/10/13 04:33:06;;;;;;;3.92;2.80;;;;;;;22.12;43.01;101748.03;5014181;28;20049;-76
2022/10/13 04:35:32;;;;;;;4.35;2.63;;;;;;;22.13;42.63;101739.06;5012881;28;20073;-76
2022/10/13 04:37:58;;;;;;;3.22;2.70;;;;;;;22.08;43.04;101729.94;5013903;28;20042;-76
2022/10/13 04:40:25;;;;;;;2.72;2.40;;;;;;;22.13;42.89;101732.94;5013534;28;20131;-76
2022/10/13 04:42:51;;;;;;;3.67;3.05;;;;;;;22.03;42.95;101730.44;5003897;28;20045;-76
2022/10/13 04:45:16;;;;;;;5.30;2.72;;;;;;;22.06;42.78;101727.47;5001424;28;20148;-76
2022/10/13 04:47:48;;;;;;;3.25;2.67;;;;;;;22.05;42.64;101714.38;5012214;28;20037;-76
2022/10/13 04:50:15;;;;;;;3.15;2.40;;;;;;;22.10;42.91;101722.69;5008816;28;20049;-76
2022/10/13 04:52:40;;;;;;;4.05;2.95;;;;;;;22.11;43.12;101719.03;4997661;28;20404;-76
2022/10/13 04:55:07;;;;;;;4.18;2.88;;;;;;;22.08;42.73;101720.16;5013377;28;20045;-76
2022/10/13 04:57:33;;;;;;;3.88;2.60;;;;;;;22.08;42.75;101729.94;5013427;28;20059;-76
2022/10/13 04:59:59;;;;;;;4.50;3.08;;;;;;;22.03;42.64;101728.63;4991411;28;20124;-76
2022/10/13 05:02:24;;;;;;;3.67;2.70;;;;;;;22.06;42.65;101740.72;5012848;28;20780;-76
2022/10/13 05:04:50;;;;;;;4.18;3.15;;;;;;;22.05;42.88;101740.91;5015544;28;20041;-76
2022/10/13 05:07:17;;;;;;;3.08;2.63;;;;;;;22.00;42.80;101730.78;5012272;28;20104;-77
2022/10/13 05:09:44;;;;;;;5.00;3.17;;;;;;;22.05;42.59;101740.91;5016942;28;21211;-76
2022/10/13 05:12:11;;;;;;;4.05;2.60;;;;;;;22.06;42.68;101739.91;5017268;28;20454;-76
2022/10/13 05:14:37;;;;;;;2.95;2.50;;;;;;;22.06;42.99;101730.13;5017135;28;20045;-75
2022/10/13 05:17:06;;;;;;;3.25;2.95;;;;;;;22.04;42.81;101740.06;4985905;28;20063;-78
2022/10/13 05:19:31;;;;;;;3.08;2.78;;;;;;;22.01;42.68;101727.97;5015624;28;20527;-78
2022/10/13 05:21:57;;;;;;;3.20;2.75;;;;;;;22.00;43.16;101731.63;5019894;28;20029;-78
2022/10/13 05:24:29;;;;;;;3.20;2.75;;;;;;;22.00;42.94;101726.31;5015904;28;20045;-77
2022/10/13 05:26:56;;;;;;;3.78;2.60;;;;;;;21.99;42.94;101729.97;4985643;28;20041;-77
2022/10/13 05:29:25;;;;;;;4.43;2.95;;;;;;;21.97;42.76;101731.16;5015813;28;20037;-77
2022/10/13 05:31:53;;;;;;;3.47;2.83;;;;;;;22.03;42.66;101733.91;5011759;28;20138;-77
2022/10/13 05:34:19;;;;;;;3.00;2.60;;;;;;;22.03;42.86;101725.13;4984646;28;20356;-77
2022/10/13 05:36:44;;;;;;;4.05;2.60;;;;;;;21.97;43.05;101716.06;4989153;28;20045;-78
2022/10/13 05:39:10;;;;;;;3.88;3.10;;;;;;;22.00;43.12;101714.88;4994034;28;20054;-77
2022/10/13 05:41:35;;;;;;;3.42;3.00;;;;;;;22.01;42.98;101711.22;4991327;28;20041;-77
2022/10/13 05:44:07;;;;;;;3.78;2.80;;;;;;;21.99;43.07;101710.56;4995810;28;20072;-77
2022/10/13 05:46:33;;;;;;;3.75;3.00;;;;;;;21.98;42.82;101706.28;4995123;28;20490;-78
2022/10/13 05:48:58;;;;;;;3.67;2.80;;;;;;;22.01;42.90;101700.63;4973290;28;20042;-78
2022/10/13 05:51:34;;;;;;;4.65;2.80;;;;;;;21.99;42.79;101695.50;4997561;28;20038;-77
2022/10/13 05:54:19;;;;;;;3.00;2.70;;;;;;;21.97;43.01;101694.84;4995291;28;20056;-77
2022/10/13 05:56:59;;;;;;;3.20;2.75;;;;;;;21.98;42.96;101699.16;4998084;28;20414;-77
2022/10/13 05:59:28;;;;;;;3.78;2.80;;;;;;;21.96;42.86;101695.84;4996368;28;20483;-76
2022/10/13 06:01:54;;;;;;;3.35;2.67;;;;;;;22.00;42.84;101702.44;4989811;28;20833;-78
2022/10/13 06:04:45;;;;;;;3.10;2.65;;;;;;;21.88;42.97;101698.50;4983159;28;20498;-78
2022/10/13 06:07:11;;;;;;;3.75;2.90;;;;;;;21.94;43.07;101702.31;4992812;28;20095;-78
2022/10/13 06:09:38;;;;;;;3.15;2.55;;;;;;;21.96;42.89;101702.97;4993141;28;20065;-77
2022/10/13 06:12:05;;;;;;;3.88;2.95;;;;;;;22.01;43.20;101704.09;4993751;28;20038;-77
2022/10/13 06:14:31;;;;;;;4.15;3.22;;;;;;;21.95;43.17;101694.19;5006216;28;20034;-77
2022/10/13 06:16:56;;;;;;;3.72;2.72;;;;;;;21.96;43.17;101697.66;4993227;28;20052;-77
2022/10/13 06:19:22;;;;;;;4.30;2.70;;;;;;;21.96;43.19;101695.84;4993755;28;20041;-77
2022/10/13 06:21:48;;;;;;;3.10;2.50;;;;;;;21.91;43.22;101689.41;4970633;28;20976;-77
2022/10/13 06:24:13;;;;;;;3.40;2.50;;;;;;;21.96;42.89;101698.50;4990579;28;20080;-78
2022/10/13 06:26:39;;;;;;;4.18;2.80;;;;;;;21.96;42.99;101695.84;4988685;28;20065;-76
2022/10/13 06:29:05;;;;;;;3.63;2.85;;;;;;;21.97;43.07;101686.06;4992057;28;20041;-77
2022/10/13 06:31:30;;;;;;;3.10;2.50;;;;;;;21.93;42.84;101685.59;4994239;28;20526;-76
2022/10/13 06:33:57;;;;;;;3.15;2.53;;;;;;;21.94;43.01;101686.41;5002492;28;20061;-76
2022/10/13 06:36:22;;;;;;;3.47;2.95;;;;;;;21.96;42.94;101679.94;4995800;28;20899;-78
2022/10/13 06:38:48;;;;;;;3.55;2.60;;;;;;;21.94;43.17;101681.94;4995918;28;20038;-77
2022/10/13 06:41:15;;;;;;;3.42;2.70;;;;;;;21.94;42.91;101660.72;5009187;28;20033;-78
2022/10/13 06:43:41;;;;;;;4.07;2.90;;;;;;;22.01;42.71;101661.66;5014975;28;20403;-78
2022/10/13 06:46:10;;;;;;;3.38;2.67;;;;;;;22.07;42.83;101660.16;4997680;28;20069;-78
2022/10/13 06:48:36;;;;;;;3.30;2.70;;;;;;;22.14;42.81;101666.44;5011835;28;20134;-76
2022/10/13 06:51:04;;;;;;;3.28;2.97;;;;;;;22.19;42.76;101669.38;5016612;28;20476;-76
2022/10/13 06:53:30;;;;;;;3.33;2.88;;;;;;;22.18;42.56;101665.09;4991276;28;20063;-76
2022/10/13 06:56:00;;;;;;;3.92;2.90;;;;;;;22.14;42.95;101663.78;5014549;28;20635;-76
2022/10/13 06:58:25;;;;;;;;;;;;;;;22.15;43.03;101661.97;4997271;28;20053;-76
2022/10/13 07:00:52;;;;;;;4.13;2.78;;;;;;;22.14;43.00;101657.66;5014287;28;19922;-76
2022/10/13 07:03:18;;;;;;;3.58;2.50;;;;;;;22.23;42.99;101657.41;5013022;28;20484;-76
2022/10/13 07:05:43;;;;;;;3.50;2.83;;;;;;;22.24;42.73;101655.59;5008384;28;20034;-76
2022/10/13 07:08:11;;;;;;;3.92;2.55;;;;;;;22.20;43.09;101639.19;5006128;28;20843;-75
2022/10/13 07:10:37;;;;;;;3.55;2.80;;;;;;;22.22;42.83;101647.81;4988454;28;20037;-75
2022/10/13 07:13:03;;;;;;;4.43;2.70;;;;;;;22.21;42.78;101653.28;5010923;28;20046;-75
2022/10/13 07:15:29;;;;;;;3.53;2.80;;;;;;;22.19;42.75;101665.91;4996609;28;20041;-76
2022/10/13 07:17:55;;;;;;;3.30;2.70;;;;;;;22.20;42.71;101659.59;5015364;28;20044;-75
2022/10/13 07:20:22;;;;;;;3.75;2.60;;;;;;;22.28;42.81;101671.00;5011613;28;21156;-75
2022/10/13 07:22:51;;;;;;;3.42;2.65;;;;;;;22.34;42.46;101682.72;5009588;28;20069;-76
2022/10/13 07:25:18;;;;;;;3.80;2.40;;;;;;;22.34;42.69;101676.59;4994640;28;20057;-77
2022/10/13 07:27:43;;;;;;;3.60;2.83;;;;;;;22.33;42.90;101686.38;4998728;28;20040;-77
2022/10/13 07:30:10;;;;;;;3.25;2.63;;;;;;;22.30;42.80;101681.44;5016555;28;20495;-76
2022/10/13 07:32:35;;;;;;;2.95;2.53;;;;;;;22.29;42.99;101677.97;5013602;28;20048;-76
2022/10/13 07:35:02;;;;;;;2.95;2.60;;;;;;;22.34;42.74;101666.81;5015787;28;20096;-78
2022/10/13 07:37:28;;;;;;;3.42;2.80;;;;;;;22.32;42.84;101674.13;5015527;28;20045;-78
2022/10/13 07:39:53;;;;;;;3.45;2.70;;;;;;;22.35;42.91;101662.34;5020386;28;20041;-78
2022/10/13 07:42:19;;;;;;;3.53;2.72;;;;;;;22.33;42.56;101653.72;4994811;28;20041;-75
2022/10/13 07:44:44;;;;;;;5.82;3.38;;;;;;;22.14;43.15;101674.41;5016055;28;20702;-73
2022/10/13 07:47:10;;;;;;;4.30;3.10;;;;;;;22.37;42.98;101673.59;5010737;28;20041;-73
2022/10/13 07:49:36;;;;;;;3.90;2.65;;;;;;;22.40;42.58;101662.63;5017747;28;20132;-73
2022/10/13 07:52:03;;;;;;;5.25;3.03;;;;;;;22.44;42.79;101666.56;5011429;28;20037;-73
2022/10/13 07:54:28;;;;;;;3.53;2.90;;;;;;;22.44;42.91;101666.56;5014021;28;20045;-69
2022/10/13 07:56:54;;;;;;;3.70;2.75;;;;;;;22.42;42.65;101657.97;5016183;28;20071;-76
2022/10/13 07:59:20;;;;;;;3.42;2.95;;;;;;;22.42;42.78;101652.66;4991688;28;20037;-76
2022/10/13 08:01:46;;;;;;;4.57;2.70;;;;;;;22.47;42.90;101650.31;5001208;28;20041;-73
2022/10/13 08:04:12;;;;;;;3.22;2.60;;;;;;;22.46;42.97;101661.94;5023669;28;20040;-76
2022/10/13 08:06:37;;;;;;;7.43;3.22;;;;;;;22.46;42.83;101651.31;5012643;28;21869;-74
2022/10/13 08:09:07;;;;;;;4.18;2.70;;;;;;;22.44;42.88;101654.16;5008073;28;20030;-72
2022/10/13 08:11:33;;;;;;;4.22;3.15;;;;;;;22.32;42.78;101629.03;5011158;28;20037;-74
2022/10/13 08:14:00;;;;;;;4.10;2.80;;;;;;;22.42;42.82;101648.16;5002947;28;20049;-73
2022/10/13 08:16:30;;;;;;;3.70;2.72;;;;;;;22.41;43.09;101651.81;4985966;28;20041;-73
2022/10/13 08:18:57;;;;;;;3.50;2.83;;;;;;;22.41;42.73;101648.34;5015955;28;20038;-73
2022/10/13 08:21:23;;;;;;;3.60;2.75;;;;;;;22.39;42.75;101648.53;5011628;28;20749;-73
2022/10/13 08:23:49;;;;;;;3.92;2.55;;;;;;;22.35;43.10;101649.88;5017226;28;20041;-74
2022/10/13 08:26:20;;;;;;;3.45;3.00;;;;;;;22.37;43.21;101642.56;5014382;28;20036;-73
2022/10/13 08:28:46;;;;;;;3.47;3.00;;;;;;;22.35;43.24;101635.78;5012718;28;20029;-72
2022/10/13 08:31:11;;;;;;;4.75;3.60;;;;;;;22.31;42.78;101636.16;4996200;28;20046;-71
2022/10/13 08:33:37;;;;;;;5.05;3.28;;;;;;;22.28;42.74;101636.50;5002042;28;20112;-71
2022/10/13 08:36:04;;;;;;;7.20;3.22;;;;;;;22.22;43.30;101633.72;5011592;28;20190;-76
2022/10/13 08:38:30;;;;;;;4.10;3.20;;;;;;;22.19;43.13;101642.84;4997372;28;20495;-75
2022/10/13 08:40:55;;;;;;;4.35;3.08;;;;;;;22.21;43.37;101651.47;5015872;28;20037;-75
2022/10/13 08:43:23;;;;;;;5.78;3.92;;;;;;;22.16;43.31;101651.16;5017811;28;20045;-74
2022/10/13 08:45:50;;;;;;;6.20;3.67;;;;;;;22.32;43.28;101655.56;4952552;28;20681;-71
2022/10/13 08:48:20;;;;;;;8.05;3.53;;;;;;;22.29;43.52;101659.38;4988372;28;20045;-76
2022/10/13 08:50:50;;;;;;;4.65;2.65;;;;;;;22.31;43.58;101659.22;5011483;28;20124;-70
2022/10/13 08:53:39;;;;;;;4.93;3.28;;;;;;;22.31;43.46;101652.06;5009671;28;20033;-76
2022/10/13 08:56:20;;;;;;;3.60;2.90;;;;;;;22.31;43.25;101651.25;5018574;28;20029;-75
2022/10/13 08:58:48;;;;;;;3.72;3.03;;;;;;;22.33;43.14;101654.56;5015242;28;20455;-76
2022/10/13 09:01:29;;;;;;;3.80;2.70;;;;;;;22.40;43.23;101654.66;4974259;28;20464;-76
2022/10/13 09:04:28;;;;;;;4.63;3.00;;;;;;;22.42;43.21;101656.13;5005782;28;20510;-76
2022/10/13 09:07:20;;;;;;;5.13;2.90;;;;;;;22.45;42.99;101655.81;5009071;28;20044;-75
2022/10/13 09:09:50;;;;;;;4.45;2.90;;;;;;;22.46;43.11;101661.94;5015962;28;20048;-75
2022/10/13 09:12:20;;;;;;;3.95;3.20;;;;;;;22.49;42.90;101658.91;5004334;28;20448;-76
2022/10/13 09:15:09;;;;;;;4.38;3.20;;;;;;;22.48;42.83;101658.09;5019233;28;20613;-76
2022/10/13 09:17:36;;;;;;;3.40;2.90;;;;;;;22.48;43.23;101660.75;4989503;28;21570;-75
2022/10/13 09:20:19;;;;;;;3.88;3.03;;;;;;;22.55;42.87;101655.53;5020053;28;20508;-75
2022/10/13 09:23:01;;;;;;;3.08;2.78;;;;;;;22.53;42.66;101655.72;5008077;28;20037;-76
2022/10/13 09:25:26;;;;;;;4.68;3.13;;;;;;;22.53;42.94;101657.56;5015582;28;20044;-76
2022/10/13 09:27:57;;;;;;;3.72;2.65;;;;;;;22.50;42.71;101650.78;5011879;28;20025;-75
2022/10/13 09:30:32;;;;;;;4.43;3.10;;;;;;;22.55;42.82;101650.25;5017735;28;20938;-75
2022/10/13 09:33:17;;;;;;;3.33;2.97;;;;;;;22.59;42.79;101660.31;5004356;28;20116;-76
2022/10/13 09:36:10;;;;;;;2.90;2.58;;;;;;;22.57;42.79;101651.69;5001532;28;20133;-76
2022/10/13 09:38:36;;;;;;;4.93;3.20;;;;;;;22.55;43.04;101653.72;5005183;28;20037;-75
2022/10/13 09:41:07;;;;;;;4.10;2.80;;;;;;;22.57;42.53;101653.53;5017362;28;20124;-75
2022/10/13 09:43:46;;;;;;;3.28;2.75;;;;;;;22.59;42.94;101652.34;4994333;28;20113;-78
2022/10/13 09:46:25;;;;;;;4.15;3.10;;;;;;;22.57;43.13;101648.22;5017417;28;20490;-75
2022/10/13 09:48:55;;;;;;;4.50;3.10;;;;;;;22.55;42.80;101644.94;5008416;28;20046;-75
2022/10/13 09:51:37;;;;;;;4.57;3.40;;;;;;;22.59;42.94;101643.56;5004788;28;20036;-76
2022/10/13 09:54:37;;;;;;;4.22;3.17;;;;;;;22.46;42.75;101622.94;5007124;28;20037;-78
2022/10/13 09:57:15;;;;;;;3.30;2.67;;;;;;;22.62;42.85;101637.88;5019486;28;20034;-75
2022/10/13 10:00:03;;;;;;;4.85;2.90;;;;;;;22.65;42.77;101639.38;5019622;28;20044;-75
2022/10/13 10:02:47;;;;;;;4.50;3.25;;;;;;;22.60;42.74;101653.19;5019098;28;20041;-75
2022/10/13 10:05:17;;;;;;;3.25;2.80;;;;;;;22.62;42.65;101653.81;5007983;28;20462;-75
2022/10/13 10:07:47;;;;;;;4.53;3.30;;;;;;;22.59;42.68;101646.22;5004159;28;20689;-76
2022/10/13 10:10:25;;;;;;;3.75;2.80;;;;;;;22.63;42.50;101642.22;4994416;28;20041;-76
2022/10/13 10:12:51;;;;;;;3.70;2.80;;;;;;;22.64;42.59;101646.53;5005531;28;20056;-75
2022/10/13 10:15:23;;;;;;;4.93;2.90;;;;;;;22.61;42.81;101649.50;5019528;28;20045;-78
2022/10/13 10:17:57;;;;;;;3.72;3.10;;;;;;;22.66;42.64;101646.34;5019865;28;20049;-77
2022/10/13 10:20:37;;;;;;;3.80;2.90;;;;;;;22.64;42.66;101646.53;5003826;28;20026;-75
2022/10/13 10:23:25;;;;;;;4.03;2.83;;;;;;;22.66;42.57;101655.13;4988239;28;20495;-78
2022/10/13 10:26:01;;;;;;;3.45;2.75;;;;;;;22.66;42.70;101654.31;4990375;28;20516;-75
2022/10/13 10:28:42;;;;;;;3.78;3.05;;;;;;;22.66;42.69;101656.97;5003520;28;20038;-78
2022/10/13 10:31:20;;;;;;;3.13;2.70;;;;;;;22.66;42.80;101649.00;5014608;28;20598;-78
2022/10/13 10:33:57;;;;;;;4.53;2.95;;;;;;;22.67;42.71;101640.84;5021291;28;20765;-78
2022/10/13 10:36:40;;;;;;;3.80;3.00;;;;;;;22.64;42.52;101637.75;5020105;28;20048;-76
2022/10/13 10:39:22;;;;;;;4.47;3.20;;;;;;;22.61;42.54;101630.94;5004810;28;20046;-75
2022/10/13 10:42:01;;;;;;;3.50;2.80;;;;;;;22.66;42.54;101647.16;5000632;28;20103;-77
2022/10/13 10:44:39;;;;;;;3.75;2.88;;;;;;;22.56;42.80;101630.66;5022724;28;20087;-78
2022/10/13 10:47:13;;;;;;;4.28;3.10;;;;;;;22.58;43.00;101639.25;5022259;28;20113;-77
2022/10/13 10:49:39;;;;;;;4.60;2.95;;;;;;;22.60;42.95;101646.03;5025317;28;20463;-77
2022/10/13 10:52:09;;;;;;;3.38;2.75;;;;;;;22.63;42.66;101642.22;4996108;28;20029;-77
2022/10/13 10:54:55;;;;;;;4.07;2.85;;;;;;;22.67;42.45;101645.34;5018060;28;20037;-77
2022/10/13 10:57:26;;;;;;;2.72;2.53;;;;;;;22.70;42.68;101637.84;4996807;28;20041;-77
2022/10/13 11:00:14;;;;;;;3.33;2.80;;;;;;;22.67;42.49;101632.91;5012867;28;20025;-77
2022/10/13 11:03:09;;;;;;;3.50;2.63;;;;;;;22.69;42.34;101630.88;5025239;28;20204;-77
2022/10/13 11:05:57;;;;;;;3.20;2.85;;;;;;;22.72;42.47;101635.00;5024392;28;20037;-77
2022/10/13 11:08:39;;;;;;;3.40;3.10;;;;;;;22.60;42.71;101622.16;5020711;28;20029;-77
2022/10/13 11:11:32;;;;;;;3.45;2.65;;;;;;;22.67;42.54;101627.59;5004942;28;20033;-76
2022/10/13 11:14:05;;;;;;;3.67;3.03;;;;;;;22.68;42.62;101623.09;5004615;28;20049;-76
2022/10/13 11:16:39;;;;;;;3.25;2.92;;;;;;;22.63;42.95;101620.16;4977127;28;20034;-75
2022/10/13 11:19:33;;;;;;;3.85;3.10;;;;;;;22.70;42.97;101621.09;5022321;28;20088;-76
2022/10/13 11:21:59;;;;;;;3.53;3.10;;;;;;;22.66;42.79;101617.16;5021818;28;20072;-78
2022/10/13 11:24:38;;;;;;;3.88;3.13;;;;;;;22.72;42.65;101617.25;5002837;28;20523;-78
2022/10/13 11:27:07;;;;;;;3.50;2.92;;;;;;;22.70;42.53;101611.28;5008651;28;20056;-73
2022/10/13 11:29:45;;;;;;;4.45;3.10;;;;;;;22.74;42.58;101612.56;5005115;28;20034;-73
2022/10/13 11:32:40;;;;;;;3.72;2.83;;;;;;;22.75;42.60;101613.41;4990303;28;20091;-78
2022/10/13 11:35:05;;;;;;;4.50;3.33;;;;;;;22.71;42.91;101617.44;5016374;28;20654;-77
2022/10/13 11:37:52;;;;;;;3.38;3.00;;;;;;;22.72;42.58;101616.41;5017085;28;20041;-75
2022/10/13 11:40:23;;;;;;;4.82;2.88;;;;;;;22.74;42.60;101611.75;5019125;28;20077;-76
2022/10/13 11:43:20;;;;;;;4.05;3.03;;;;;;;22.72;42.78;101614.59;5011632;28;20491;-77